Time;durP1;ratioP1;P1;durP2;ratioP2;P2;SDS_P1;SDS_P2;PMS_P1;PMS_P2;Temp;Humidity;BMP_temperature;BMP_pressure;BME280_temperature;BME280_humidity;BME280_pressure;Samples;Min_cycle;Max_cycle;Signal;HPM_P1;HPM_P2
2021/11/05 08:11:35;;;;;;;30.55;19.50;;;;;;;14.82;100.00;99229.63;1816514;79;22910;-69
2021/11/05 08:14:04;;;;;;;31.40;21.70;;;;;;;14.87;100.00;99235.72;1789456;80;21426;-70
2021/11/05 08:16:32;;;;;;;30.40;20.72;;;;;;;14.98;100.00;99243.44;1789622;80;21816;-70
2021/11/05 08:19:04;;;;;;;34.40;19.52;;;;;;;15.09;100.00;99249.39;1789415;80;20922;-69
2021/11/05 08:21:31;;;;;;;36.03;20.05;;;;;;;15.16;100.00;99248.37;1789490;80;20879;-69
2021/11/05 08:24:02;;;;;;;29.95;20.37;;;;;;;15.23;100.00;99255.29;1789545;79;20927;-69
2021/11/05 08:26:31;;;;;;;31.35;19.65;;;;;;;15.30;100.00;99260.00;1789471;79;20918;-69
2021/11/05 08:28:59;;;;;;;32.38;21.30;;;;;;;15.35;100.00;99270.94;1789516;80;21813;-70
2021/11/05 08:31:28;;;;;;;33.55;21.40;;;;;;;15.38;100.00;99266.02;1789431;80;20966;-69
2021/11/05 08:33:56;;;;;;;29.32;18.57;;;;;;;15.43;100.00;99259.67;1781779;80;20971;-69
2021/11/05 08:36:25;;;;;;;31.45;19.17;;;;;;;15.52;100.00;99257.70;1778121;80;21447;-70
2021/11/05 08:38:54;;;;;;;28.15;18.40;;;;;;;15.63;100.00;99265.02;1780468;80;20970;-70
2021/11/05 08:41:21;;;;;;;25.77;18.67;;;;;;;15.72;100.00;99268.33;1773382;80;21816;-69
2021/11/05 08:43:55;;;;;;;28.25;19.12;;;;;;;15.81;100.00;99265.02;1720165;83;20982;-69
2021/11/05 08:46:25;;;;;;;33.08;20.50;;;;;;;15.88;100.00;99267.48;1722458;83;20911;-70
2021/11/05 08:48:56;;;;;;;27.98;18.20;;;;;;;15.95;100.00;99274.84;1721931;82;20887;-70
2021/11/05 08:51:27;;;;;;;25.88;16.87;;;;;;;15.96;100.00;99260.63;1720758;82;21498;-70
2021/11/05 08:53:55;;;;;;;28.32;18.35;;;;;;;15.99;100.00;99259.22;1739481;81;21146;-70
2021/11/05 08:56:27;;;;;;;30.72;18.30;;;;;;;16.03;100.00;99251.12;1719277;82;21513;-69
2021/11/05 08:58:54;;;;;;;77.65;20.90;;;;;;;16.05;100.00;99253.28;1721100;82;20995;-67
2021/11/05 09:01:23;;;;;;;27.13;18.80;;;;;;;16.07;100.00;99246.59;1716594;82;20995;-69
2021/11/05 09:03:51;;;;;;;40.70;19.25;;;;;;;16.08;100.00;99250.12;1724293;83;21498;-69
2021/11/05 09:06:20;;;;;;;48.70;19.10;;;;;;;16.11;100.00;99249.61;1730189;83;21168;-69
2021/11/05 09:08:51;;;;;;;35.28;18.57;;;;;;;16.15;100.00;99247.28;1730212;83;21479;-70
2021/11/05 09:11:19;;;;;;;26.62;18.55;;;;;;;16.19;100.00;99240.96;1713502;82;21034;-70
2021/11/05 09:13:48;;;;;;;30.27;19.73;;;;;;;16.22;100.00;99234.22;1717077;83;21016;-69
2021/11/05 09:16:16;;;;;;;25.20;17.87;;;;;;;16.26;100.00;99223.03;1704173;82;20986;-64
2021/11/05 09:18:45;;;;;;;22.87;17.85;;;;;;;16.29;100.00;99226.48;1775906;80;21133;-62
2021/11/05 09:21:15;;;;;;;26.57;16.40;;;;;;;16.38;100.00;99220.89;1775635;80;20947;-66
2021/11/05 09:23:43;;;;;;;27.00;17.60;;;;;;;16.48;100.00;99212.19;1775319;80;20904;-65
2021/11/05 09:26:11;;;;;;;26.07;17.87;;;;;;;16.59;100.00;99205.25;1775702;80;20932;-65
2021/11/05 09:28:39;;;;;;;46.58;20.43;;;;;;;16.66;100.00;99198.39;1775271;80;20903;-65
2021/11/05 09:31:07;;;;;;;22.15;17.80;;;;;;;16.76;100.00;99205.64;1775316;80;21328;-64
2021/11/05 09:33:35;;;;;;;22.73;17.17;;;;;;;16.88;100.00;99199.06;1773781;80;21519;-73
2021/11/05 09:36:05;;;;;;;24.90;18.42;;;;;;;17.02;100.00;99187.98;1766752;80;20960;-69
2021/11/05 09:38:34;;;;;;;26.62;18.40;;;;;;;17.11;100.00;99174.39;1764292;80;20940;-68
2021/11/05 09:41:02;;;;;;;27.58;20.08;;;;;;;17.20;100.00;99172.30;1736617;82;21105;-67
2021/11/05 09:43:30;;;;;;;58.98;19.95;;;;;;;17.28;100.00;99174.25;1749421;80;21538;-71
2021/11/05 09:45:59;;;;;;;31.42;19.48;;;;;;;17.35;100.00;99176.25;1762634;80;21427;-73
2021/11/05 09:48:27;;;;;;;26.10;18.02;;;;;;;17.59;100.00;99175.92;1768048;80;21073;-71
2021/11/05 09:50:57;;;;;;;29.80;17.27;;;;;;;17.75;100.00;99178.50;1743363;81;20967;-72
2021/11/05 09:53:26;;;;;;;28.62;18.60;;;;;;;17.75;100.00;99178.50;1766259;80;20928;-66
2021/11/05 09:55:54;;;;;;;29.40;18.07;;;;;;;17.91;100.00;99173.50;1705940;83;21123;-64
2021/11/05 09:58:22;;;;;;;58.95;18.85;;;;;;;18.01;100.00;99158.93;1761094;80;20975;-65
2021/11/05 10:00:51;;;;;;;25.37;17.32;;;;;;;18.10;100.00;99151.05;1757113;80;21070;-69
2021/11/05 10:03:19;;;;;;;32.53;19.87;;;;;;;18.19;100.00;99143.57;1766613;80;21403;-69
2021/11/05 10:05:56;;;;;;;36.17;18.45;;;;;;;18.22;100.00;99134.58;1766632;80;20971;-69
2021/11/05 10:08:34;;;;;;;25.60;18.67;;;;;;;18.28;100.00;99133.02;1765556;80;21160;-70
2021/11/05 10:11:24;;;;;;;27.32;18.02;;;;;;;18.36;100.00;99140.27;1765303;80;20947;-70
2021/11/05 10:13:55;;;;;;;95.75;24.12;;;;;;;18.43;100.00;99138.23;1714436;81;20912;-70
2021/11/05 10:16:27;;;;;;;27.25;18.45;;;;;;;18.43;100.00;99129.75;1772302;81;20948;-69
2021/11/05 10:19:00;;;;;;;25.00;18.70;;;;;;;18.43;100.00;99127.09;1773106;80;21486;-70
2021/11/05 10:21:30;;;;;;;31.20;20.08;;;;;;;18.51;100.00;99126.36;1774404;80;21175;-67
2021/11/05 10:24:10;;;;;;;27.37;19.32;;;;;;;18.63;100.00;99122.37;1774256;80;20916;-69
2021/11/05 10:26:38;;;;;;;26.68;18.42;;;;;;;18.73;100.00;99125.08;1766147;80;21026;-71
2021/11/05 10:29:07;;;;;;;28.02;19.02;;;;;;;18.80;100.00;99113.22;1763583;80;20872;-65
2021/11/05 10:31:35;;;;;;;25.40;18.48;;;;;;;18.83;100.00;99103.73;1767662;80;21388;-69
2021/11/05 10:34:04;;;;;;;22.80;18.30;;;;;;;18.92;100.00;99099.86;1761527;80;21543;-67
2021/11/05 10:36:33;;;;;;;27.37;19.98;;;;;;;18.94;100.00;99093.11;1749534;81;21057;-66
2021/11/05 10:39:03;;;;;;;27.07;18.30;;;;;;;18.94;100.00;99084.63;1756240;80;20987;-67
2021/11/05 10:41:31;;;;;;;26.40;18.27;;;;;;;18.98;100.00;99075.55;1711070;83;21027;-68
2021/11/05 10:44:16;;;;;;;24.70;18.15;;;;;;;19.02;100.00;99084.31;1773615;80;21007;-69
2021/11/05 10:46:45;;;;;;;25.25;18.57;;;;;;;19.04;100.00;99077.97;1772675;80;21430;-68
2021/11/05 10:49:26;;;;;;;43.20;19.40;;;;;;;19.06;100.00;99065.87;1758091;80;20932;-68
2021/11/05 10:52:18;;;;;;;23.22;16.67;;;;;;;19.07;100.00;99067.14;1770564;80;20902;-67
2021/11/05 10:54:58;;;;;;;25.32;17.75;;;;;;;19.08;100.00;99064.00;1769412;80;20964;-67
2021/11/05 10:57:43;;;;;;;23.02;17.55;;;;;;;19.05;100.00;99056.11;1768492;80;21033;-68
2021/11/05 11:00:24;;;;;;;23.22;18.40;;;;;;;19.04;100.00;99070.41;1773771;80;21597;-67
2021/11/05 11:02:52;;;;;;;25.52;18.02;;;;;;;19.11;100.00;99077.23;1773110;80;20992;-68
2021/11/05 11:05:34;;;;;;;24.72;19.20;;;;;;;19.26;100.00;99083.28;1773352;80;20951;-68
2021/11/05 11:08:04;;;;;;;29.45;20.15;;;;;;;19.31;100.00;99079.06;1770242;80;20939;-67
2021/11/05 11:10:35;;;;;;;24.67;18.82;;;;;;;19.15;100.00;99074.84;1771047;80;20980;-67
2021/11/05 11:13:03;;;;;;;25.97;19.98;;;;;;;18.93;100.00;99065.98;1766682;80;21090;-67
2021/11/05 11:15:36;;;;;;;27.02;18.15;;;;;;;18.77;100.00;99071.92;1768745;80;21046;-65
2021/11/05 11:18:05;;;;;;;28.47;18.00;;;;;;;18.70;100.00;99078.91;1766986;80;20931;-67
2021/11/05 11:20:37;;;;;;;27.25;17.27;;;;;;;18.66;100.00;99078.63;1770089;80;20957;-67
2021/11/05 11:23:09;;;;;;;25.30;17.00;;;;;;;18.67;100.00;99079.03;1764805;80;21543;-68
2021/11/05 11:25:37;;;;;;;27.48;18.80;;;;;;;18.67;100.00;99067.88;1768437;80;21781;-66
2021/11/05 11:28:06;;;;;;;25.72;17.48;;;;;;;18.72;100.00;99059.67;1771939;80;20890;-66
2021/11/05 11:30:34;;;;;;;22.62;17.50;;;;;;;18.79;100.00;99041.99;1764936;80;20895;-68
2021/11/05 11:33:05;;;;;;;28.77;17.32;;;;;;;18.79;100.00;99046.00;1769929;80;21477;-68
2021/11/05 11:35:35;;;;;;;29.90;18.77;;;;;;;18.81;100.00;99055.30;1772776;80;20917;-68
2021/11/05 11:38:04;;;;;;;27.05;18.77;;;;;;;18.87;100.00;99067.06;1767900;80;21159;-68
2021/11/05 11:40:31;;;;;;;26.93;19.32;;;;;;;18.98;100.00;99049.28;1766440;80;21514;-69
2021/11/05 11:43:00;;;;;;;24.20;18.00;;;;;;;19.11;100.00;99047.36;1770447;80;21526;-69
2021/11/05 11:45:28;;;;;;;24.82;18.12;;;;;;;19.24;100.00;99045.50;1767241;80;20914;-68
2021/11/05 11:47:57;;;;;;;26.70;18.40;;;;;;;19.32;100.00;99060.28;1766309;80;20951;-67
2021/11/05 11:50:31;;;;;;;23.32;18.37;;;;;;;19.41;100.00;99063.93;1767082;80;21074;-69
2021/11/05 11:53:08;;;;;;;27.13;18.30;;;;;;;19.58;100.00;99064.56;1770313;80;21072;-70
2021/11/05 11:55:40;;;;;;;32.23;18.87;;;;;;;19.73;100.00;99064.34;1772472;80;20900;-68
2021/11/05 11:58:12;;;;;;;27.02;17.87;;;;;;;19.88;100.00;99057.47;1769193;80;20954;-68
2021/11/05 12:00:40;;;;;;;21.85;16.82;;;;;;;19.97;100.00;99053.90;1768789;80;21582;-69
2021/11/05 12:03:15;;;;;;;71.90;20.32;;;;;;;19.99;100.00;99049.34;1770692;80;21090;-68
2021/11/05 12:05:45;;;;;;;23.55;18.40;;;;;;;19.99;100.00;99060.05;1766241;80;21476;-68
2021/11/05 12:08:36;;;;;;;27.30;21.20;;;;;;;20.01;100.00;99052.82;1762511;80;20900;-69
2021/11/05 12:11:17;;;;;;;21.57;15.80;;;;;;;20.02;100.00;99041.17;1764650;80;21076;-66
2021/11/05 12:13:45;;;;;;;26.40;16.87;;;;;;;20.03;100.00;99052.28;1748958;80;21495;-69
2021/11/05 12:16:24;;;;;;;28.62;20.92;;;;;;;20.08;100.00;99061.44;1749546;81;21133;-67
2021/11/05 12:19:03;;;;;;;37.10;23.05;;;;;;;20.13;100.00;99059.41;1749316;81;21579;-65
2021/11/05 12:21:34;;;;;;;35.83;28.85;;;;;;;20.16;100.00;99061.95;1748659;80;21480;-66
2021/11/05 12:24:27;;;;;;;40.03;29.25;;;;;;;20.16;100.00;99062.42;1746909;82;21003;-67
2021/11/05 12:27:13;;;;;;;43.85;33.63;;;;;;;20.16;100.00;99064.63;1748555;80;21023;-65
2021/11/05 12:29:52;;;;;;;45.28;35.20;;;;;;;20.18;100.00;99065.42;1743343;80;21522;-65
2021/11/05 12:32:25;;;;;;;45.03;37.23;;;;;;;20.16;100.00;99055.26;1742800;82;21573;-64
2021/11/05 12:35:09;;;;;;;42.35;33.73;;;;;;;20.16;100.00;99055.26;1748026;80;21017;-65
2021/11/05 12:37:54;;;;;;;43.90;33.38;;;;;;;20.18;100.00;99059.20;1727952;81;21421;-65
2021/11/05 12:40:39;;;;;;;44.10;32.78;;;;;;;20.19;100.00;99055.59;1747425;80;21545;-65
2021/11/05 12:43:22;;;;;;;42.13;27.10;;;;;;;20.16;100.00;99051.23;1748419;80;21176;-64
2021/11/05 12:46:01;;;;;;;41.92;34.67;;;;;;;20.18;100.00;99036.44;1745016;80;21075;-65
2021/11/05 12:48:48;;;;;;;26.37;18.87;;;;;;;20.23;100.00;99032.60;1738600;80;21470;-67
2021/11/05 12:51:24;;;;;;;25.88;19.27;;;;;;;20.29;100.00;99030.97;1743041;80;21006;-65
2021/11/05 12:54:06;;;;;;;23.22;15.63;;;;;;;20.35;100.00;99032.52;1722499;82;21553;-66
2021/11/05 12:56:38;;;;;;;24.52;17.35;;;;;;;20.39;100.00;99043.48;1722666;83;22076;-65
2021/11/05 12:59:17;;;;;;;33.23;26.20;;;;;;;20.40;100.00;99046.13;1722766;82;20904;-65
2021/11/05 13:02:00;;;;;;;40.15;32.40;;;;;;;20.40;100.00;99049.28;1723041;83;20901;-65
2021/11/05 13:04:33;;;;;;;30.75;23.40;;;;;;;20.42;100.00;99046.92;1703874;83;21470;-65
2021/11/05 13:07:06;;;;;;;22.85;16.82;;;;;;;20.42;100.00;99069.70;1722707;83;20861;-65
2021/11/05 13:09:41;;;;;;;19.00;15.15;;;;;;;20.40;100.00;99069.38;1722677;83;21162;-65
2021/11/05 13:12:17;;;;;;;19.77;14.33;;;;;;;20.39;100.00;99059.56;1735094;82;20994;-66
2021/11/05 13:15:00;;;;;;;23.73;16.07;;;;;;;20.35;100.00;99056.63;1708942;84;20947;-65
2021/11/05 13:17:34;;;;;;;18.12;14.40;;;;;;;20.30;100.00;99054.61;1744771;82;20970;-65
2021/11/05 13:20:24;;;;;;;18.77;13.72;;;;;;;20.23;100.00;99054.03;1709480;82;21450;-66
2021/11/05 13:22:55;;;;;;;22.10;13.75;;;;;;;20.16;100.00;99066.44;1766526;81;21162;-66
2021/11/05 13:25:35;;;;;;;17.45;13.40;;;;;;;20.11;100.00;99069.33;1700174;83;21487;-66
2021/11/05 13:28:09;;;;;;;19.37;13.88;;;;;;;20.03;100.00;99058.97;1768796;81;20900;-65
2021/11/05 13:30:49;;;;;;;39.78;15.63;;;;;;;19.98;100.00;99057.45;1700498;84;20909;-64
2021/11/05 13:33:17;;;;;;;24.77;15.10;;;;;;;19.94;100.00;99061.20;1767621;80;20912;-64
2021/11/05 13:35:53;;;;;;;19.02;14.03;;;;;;;19.84;100.00;99067.88;1767284;80;21184;-65
2021/11/05 13:38:25;;;;;;;22.30;15.15;;;;;;;19.73;100.00;99072.38;1766729;80;20854;-65
2021/11/05 13:41:07;;;;;;;21.23;15.88;;;;;;;19.63;100.00;99077.27;1767960;80;21507;-65
2021/11/05 13:43:39;;;;;;;18.75;13.32;;;;;;;19.54;100.00;99073.66;1768755;80;20897;-63
2021/11/05 13:46:11;;;;;;;21.42;14.87;;;;;;;19.46;100.00;99071.28;1700650;84;20893;-64
2021/11/05 13:48:42;;;;;;;18.70;13.53;;;;;;;19.40;100.00;99078.23;1700197;83;21260;-63
2021/11/05 13:51:24;;;;;;;31.65;15.43;;;;;;;19.37;100.00;99080.14;1701698;82;21039;-64
2021/11/05 13:54:05;;;;;;;25.48;15.43;;;;;;;19.30;100.00;99077.33;1761756;80;21513;-64
2021/11/05 13:56:42;;;;;;;22.67;13.85;;;;;;;19.25;100.00;99082.00;1775280;80;20913;-64
2021/11/05 13:59:17;;;;;;;21.90;14.50;;;;;;;19.18;100.00;99074.71;1775318;80;21018;-67
2021/11/05 14:01:48;;;;;;;23.07;15.25;;;;;;;19.13;100.00;99072.70;1775348;80;21411;-64
2021/11/05 14:04:19;;;;;;;20.45;14.45;;;;;;;19.08;100.00;99070.22;1775188;80;20911;-65
2021/11/05 14:06:50;;;;;;;20.23;14.15;;;;;;;19.02;100.00;99074.95;1775538;80;20888;-66
2021/11/05 14:09:19;;;;;;;27.37;16.85;;;;;;;18.97;100.00;99085.83;1771535;80;20951;-68
2021/11/05 14:11:49;;;;;;;47.58;18.12;;;;;;;18.92;100.00;99095.84;1767715;80;21399;-68
2021/11/05 14:14:25;;;;;;;44.88;17.70;;;;;;;18.85;100.00;99107.22;1768194;80;20885;-68
2021/11/05 14:16:55;;;;;;;36.48;22.27;;;;;;;18.78;100.00;99100.84;1768467;80;21456;-67
2021/11/05 14:19:29;;;;;;;42.65;22.80;;;;;;;18.70;100.00;99102.95;1768120;81;21546;-67
2021/11/05 14:22:09;;;;;;;37.80;19.23;;;;;;;18.63;100.00;99107.67;1765726;80;20896;-66
2021/11/05 14:24:39;;;;;;;29.37;19.77;;;;;;;18.56;100.00;99110.15;1768682;80;21049;-67
2021/11/05 14:27:29;;;;;;;37.38;21.73;;;;;;;18.48;100.00;99110.91;1762734;80;21135;-65
2021/11/05 14:29:59;;;;;;;40.73;22.50;;;;;;;18.40;100.00;99108.51;1768046;80;20919;-66
2021/11/05 14:32:36;;;;;;;48.78;23.70;;;;;;;18.32;100.00;99115.94;1768214;80;20884;-66
2021/11/05 14:35:09;;;;;;;50.15;30.15;;;;;;;18.22;100.00;99108.75;1771940;80;21482;-68
2021/11/05 14:37:42;;;;;;;70.85;44.15;;;;;;;18.15;100.00;99115.71;1768147;80;21400;-68
2021/11/05 14:40:24;;;;;;;86.90;52.45;;;;;;;18.06;100.00;99123.59;1774472;80;21160;-66
2021/11/05 14:43:13;;;;;;;131.60;69.12;;;;;;;17.99;100.00;99130.09;1767738;80;20974;-66
2021/11/05 14:45:45;;;;;;;156.67;83.58;;;;;;;17.90;100.00;99125.05;1769798;80;20976;-67
2021/11/05 14:48:19;;;;;;;153.18;81.80;;;;;;;17.81;100.00;99135.59;1766832;80;21001;-67
2021/11/05 14:50:59;;;;;;;143.43;73.15;;;;;;;17.71;100.00;99132.84;1774049;80;21464;-66
2021/11/05 14:53:37;;;;;;;176.75;86.22;;;;;;;17.69;100.00;99128.49;1708538;83;21145;-68
2021/11/05 14:56:08;;;;;;;170.68;80.85;;;;;;;17.62;100.00;99128.67;1708187;83;21594;-67
2021/11/05 14:58:43;;;;;;;160.35;73.92;;;;;;;17.55;100.00;99124.94;1708529;83;21040;-68
2021/11/05 15:01:20;;;;;;;169.28;65.60;;;;;;;17.49;100.00;99128.66;1708270;84;21007;-68
2021/11/05 15:03:53;;;;;;;130.90;57.78;;;;;;;17.41;100.00;99134.72;1708039;83;20900;-68
2021/11/05 15:06:31;;;;;;;;;;;;;;;17.33;100.00;99135.91;1710667;83;21156;-67
2021/11/05 15:09:07;;;;;;;137.28;69.75;;;;;;;17.27;100.00;99135.19;1702202;83;20100;-67
2021/11/05 15:11:35;;;;;;;150.07;72.62;;;;;;;17.20;100.00;99136.77;1683621;83;21150;-68
2021/11/05 15:14:03;;;;;;;148.07;78.50;;;;;;;17.13;100.00;99147.23;1705406;83;21515;-67
2021/11/05 15:16:31;;;;;;;170.10;82.57;;;;;;;17.05;100.00;99148.81;1705775;83;21024;-67
2021/11/05 15:19:00;;;;;;;159.15;89.25;;;;;;;17.02;100.00;99154.66;1728787;82;21181;-67
2021/11/05 15:21:29;;;;;;;168.95;94.10;;;;;;;16.99;100.00;99151.18;1732404;82;20956;-67
2021/11/05 15:23:57;;;;;;;163.30;87.37;;;;;;;16.95;100.00;99153.53;1770041;80;21403;-65
2021/11/05 15:26:25;;;;;;;155.93;92.47;;;;;;;16.91;100.00;99160.34;1774917;80;21427;-76
2021/11/05 15:28:56;;;;;;;131.12;78.37;;;;;;;16.87;100.00;99164.02;1777780;80;20928;-76
2021/11/05 15:31:25;;;;;;;150.78;83.67;;;;;;;16.82;100.00;99169.95;1712080;82;21491;-77
2021/11/05 15:33:52;;;;;;;142.72;81.40;;;;;;;16.77;100.00;99164.77;1763952;80;20930;-76
2021/11/05 15:36:20;;;;;;;146.28;85.85;;;;;;;16.72;100.00;99172.48;1708964;83;21047;-75
2021/11/05 15:38:48;;;;;;;173.80;94.07;;;;;;;16.67;100.00;99172.63;1708854;83;21610;-76
2021/11/05 15:41:16;;;;;;;189.60;101.85;;;;;;;16.61;100.00;99182.98;1765291;80;20983;-76
2021/11/05 15:43:43;;;;;;;153.82;84.22;;;;;;;16.57;100.00;99184.45;1767589;80;21512;-75
2021/11/05 15:46:15;;;;;;;144.25;80.67;;;;;;;16.53;100.00;99189.42;1775151;80;20948;-75
2021/11/05 15:48:46;;;;;;;173.53;93.72;;;;;;;16.48;100.00;99190.02;1766365;80;28074;-74
2021/11/05 15:51:13;;;;;;;178.47;97.47;;;;;;;16.42;100.00;99187.07;1753184;80;21047;-74
2021/11/05 15:53:42;;;;;;;186.30;99.85;;;;;;;16.36;100.00;99186.80;1775352;80;20928;-74
2021/11/05 15:56:15;;;;;;;158.97;88.35;;;;;;;16.27;100.00;99184.85;1772273;80;21597;-74
2021/11/05 15:58:46;;;;;;;105.40;63.23;;;;;;;16.20;100.00;99192.14;1756712;80;20955;-75
2021/11/05 16:01:17;;;;;;;104.63;61.28;;;;;;;16.12;100.00;99195.48;1775506;80;21012;-74
2021/11/05 16:03:46;;;;;;;201.98;70.17;;;;;;;16.04;100.00;99194.78;1776067;80;20908;-74
2021/11/05 16:06:13;;;;;;;116.20;68.70;;;;;;;15.96;100.00;99201.64;1737197;81;21026;-75
2021/11/05 16:08:43;;;;;;;103.97;63.08;;;;;;;15.88;100.00;99204.97;1712030;83;21111;-75
2021/11/05 16:11:11;;;;;;;94.45;58.30;;;;;;;15.82;100.00;99201.60;1767699;80;21097;-74
2021/11/05 16:13:40;;;;;;;118.47;62.78;;;;;;;15.79;100.00;99199.89;1758592;80;21015;-74
2021/11/05 16:16:08;;;;;;;106.03;56.70;;;;;;;15.75;100.00;99202.22;1763923;80;21004;-75
2021/11/05 16:18:37;;;;;;;103.42;57.45;;;;;;;15.70;100.00;99208.98;1766772;80;20881;-74
2021/11/05 16:21:04;;;;;;;116.20;65.30;;;;;;;15.66;100.00;99207.32;1758757;80;21183;-74
2021/11/05 16:23:33;;;;;;;121.22;71.62;;;;;;;15.60;100.00;99210.10;1765375;80;20888;-74
2021/11/05 16:26:01;;;;;;;130.12;73.78;;;;;;;15.54;100.00;99216.87;1763770;80;20940;-75
2021/11/05 16:28:30;;;;;;;108.85;63.23;;;;;;;15.49;100.00;99212.12;1767167;80;20881;-74
2021/11/05 16:30:57;;;;;;;82.55;49.27;;;;;;;15.43;100.00;99214.94;1766040;80;20912;-74
2021/11/05 16:33:27;;;;;;;65.57;41.30;;;;;;;15.38;100.00;99215.51;1766757;81;21126;-74
2021/11/05 16:35:55;;;;;;;87.17;46.02;;;;;;;15.34;100.00;99220.03;1768631;80;20952;-74
2021/11/05 16:38:23;;;;;;;85.50;48.52;;;;;;;15.28;100.00;99214.86;1706511;83;20916;-74
2021/11/05 16:40:51;;;;;;;80.97;47.20;;;;;;;15.23;100.00;99204.80;1769929;80;20904;-69
2021/11/05 16:43:21;;;;;;;68.30;40.78;;;;;;;15.19;100.00;99207.56;1704842;83;20892;-66
2021/11/05 16:45:49;;;;;;;73.50;38.17;;;;;;;15.13;100.00;99204.56;1704380;84;21182;-67
2021/11/05 16:48:18;;;;;;;47.03;28.83;;;;;;;15.11;100.00;99200.62;1706196;82;21027;-65
2021/11/05 16:50:46;;;;;;;39.65;24.50;;;;;;;15.06;100.00;99201.18;1770465;81;21403;-66
2021/11/05 16:53:14;;;;;;;59.33;29.57;;;;;;;15.03;100.00;99207.02;1766491;80;20908;-69
2021/11/05 16:55:43;;;;;;;60.05;30.10;;;;;;;15.03;100.00;99215.86;1762047;80;20932;-59
2021/11/05 16:58:13;;;;;;;70.92;29.02;;;;;;;15.02;100.00;99217.23;1767398;80;21543;-62
2021/11/05 17:00:42;;;;;;;52.15;32.17;;;;;;;15.03;100.00;99215.86;1696007;84;21494;-67
2021/11/05 17:03:10;;;;;;;66.80;38.73;;;;;;;15.02;100.00;99220.76;1770760;80;21541;-63
2021/11/05 17:05:38;;;;;;;72.80;43.15;;;;;;;15.00;100.00;99231.87;1766409;79;20948;-65
2021/11/05 17:08:06;;;;;;;77.55;42.25;;;;;;;14.98;100.00;99236.34;1761322;80;21002;-65
2021/11/05 17:10:34;;;;;;;93.37;46.48;;;;;;;14.96;100.00;99239.49;1760582;80;21126;-67
2021/11/05 17:13:03;;;;;;;103.47;55.58;;;;;;;14.95;100.00;99244.38;1776577;80;20944;-66
2021/11/05 17:15:31;;;;;;;121.60;62.43;;;;;;;14.93;100.00;99239.56;1778427;79;21466;-65
2021/11/05 17:18:01;;;;;;;116.28;60.48;;;;;;;14.91;100.00;99240.05;1774333;79;21530;-65
2021/11/05 17:20:31;;;;;;;88.72;51.53;;;;;;;14.90;100.00;99236.97;1775585;80;21538;-66
2021/11/05 17:23:00;;;;;;;74.53;42.83;;;;;;;14.89;100.00;99244.52;1780967;80;21106;-65
2021/11/05 17:25:28;;;;;;;75.80;44.67;;;;;;;14.85;100.00;99253.92;1716339;83;21443;-66
2021/11/05 17:27:56;;;;;;;69.20;40.78;;;;;;;14.82;100.00;99248.22;1715602;83;20913;-65
2021/11/05 17:30:24;;;;;;;59.30;36.80;;;;;;;14.80;100.00;99242.07;1717401;83;21035;-64
2021/11/05 17:32:53;;;;;;;55.70;33.70;;;;;;;14.77;100.00;99240.81;1722301;83;20940;-66
2021/11/05 17:35:22;;;;;;;44.95;31.40;;;;;;;14.75;100.00;99239.97;1720918;83;21884;-65
2021/11/05 17:37:51;;;;;;;45.90;29.80;;;;;;;14.73;100.00;99243.11;1716610;83;21023;-64
2021/11/05 17:40:20;;;;;;;42.73;29.55;;;;;;;14.72;100.00;99245.34;1715893;83;21162;-64
2021/11/05 17:42:48;;;;;;;53.95;35.58;;;;;;;14.68;100.00;99238.35;1721071;83;21003;-63
2021/11/05 17:45:16;;;;;;;59.40;36.95;;;;;;;14.67;100.00;99243.23;1725612;83;20994;-66
2021/11/05 17:47:45;;;;;;;66.50;40.43;;;;;;;14.64;100.00;99245.47;1714877;82;21411;-64
2021/11/05 17:50:14;;;;;;;70.00;39.92;;;;;;;14.60;100.00;99245.12;1717984;82;21026;-67
2021/11/05 17:52:44;;;;;;;48.92;32.60;;;;;;;14.57;100.00;99243.86;1707941;83;21066;-66
2021/11/05 17:55:12;;;;;;;42.80;29.45;;;;;;;14.53;100.00;99242.17;1713298;83;20961;-68
2021/11/05 17:57:41;;;;;;;47.13;28.52;;;;;;;14.48;100.00;99248.03;1719273;82;21553;-63
2021/11/05 18:00:12;;;;;;;43.30;29.12;;;;;;;14.46;100.00;99244.53;1713602;83;21150;-64
2021/11/05 18:02:44;;;;;;;45.33;30.08;;;;;;;14.44;100.00;99241.91;1715123;83;20928;-63
2021/11/05 18:05:13;;;;;;;59.33;31.52;;;;;;;14.42;100.00;99247.70;1709690;83;20922;-63
2021/11/05 18:07:41;;;;;;;51.23;30.75;;;;;;;14.41;100.00;99247.24;1744991;82;20983;-66
2021/11/05 18:10:11;;;;;;;43.63;29.12;;;;;;;14.41;100.00;99247.24;1728533;82;20995;-65
2021/11/05 18:15:28;;;;;;;50.20;29.98;;;;;;;14.39;100.00;99246.40;1740987;82;21518;-66
2021/11/05 18:17:58;;;;;;;57.80;31.25;;;;;;;14.36;100.00;99235.84;1748258;80;21518;-66
2021/11/05 18:20:25;;;;;;;80.50;32.95;;;;;;;14.34;100.00;99234.13;1759457;80;21043;-63
2021/11/05 18:22:53;;;;;;;80.47;32.58;;;;;;;14.31;100.00;99233.73;1748102;80;21117;-64
2021/11/05 18:25:22;;;;;;;68.80;31.80;;;;;;;14.28;100.00;99228.49;1757985;81;21162;-64
2021/11/05 18:27:52;;;;;;;47.15;29.70;;;;;;;14.26;100.00;99234.73;1757898;81;20891;-66
2021/11/05 18:30:20;;;;;;;50.00;30.45;;;;;;;14.23;100.00;99234.80;1750927;81;21384;-64
2021/11/05 18:32:48;;;;;;;48.05;33.45;;;;;;;14.19;100.00;99235.30;1783588;79;20926;-65
2021/11/05 18:35:17;;;;;;;54.50;33.33;;;;;;;14.14;100.00;99236.69;1767380;80;20940;-64
2021/11/05 18:37:45;;;;;;;56.95;34.98;;;;;;;14.09;100.00;99231.92;1755237;81;21136;-65
2021/11/05 18:40:13;;;;;;;53.55;33.80;;;;;;;14.03;100.00;99237.80;1752424;81;21509;-66
2021/11/05 18:42:42;;;;;;;52.83;33.55;;;;;;;13.97;100.00;99231.28;1755391;81;20932;-64
2021/11/05 18:45:16;;;;;;;55.50;32.80;;;;;;;13.94;100.00;99239.30;1752760;80;21053;-65
2021/11/05 18:47:41;;;;;;;53.63;32.17;;;;;;;13.88;100.00;99234.98;1743151;81;20919;-67
2021/11/05 18:50:09;;;;;;;59.20;35.50;;;;;;;13.88;100.00;99238.08;1767049;79;21780;-66
2021/11/05 18:52:42;;;;;;;59.00;36.83;;;;;;;13.85;100.00;99238.56;1740967;81;20836;-65
2021/11/05 18:55:07;;;;;;;54.27;36.25;;;;;;;13.81;100.00;99235.98;1730052;81;20903;-66
2021/11/05 18:57:34;;;;;;;52.33;36.25;;;;;;;13.76;100.00;99240.05;1766692;79;20983;-66
2021/11/05 19:00:07;;;;;;;54.35;37.05;;;;;;;13.70;100.00;99252.05;1740805;81;20895;-64
2021/11/05 19:02:36;;;;;;;53.40;37.17;;;;;;;13.66;100.00;99247.70;1766313;79;21113;-66
2021/11/05 19:05:05;;;;;;;55.30;37.70;;;;;;;13.64;100.00;99253.94;1745785;81;20911;-66
2021/11/05 19:07:33;;;;;;;62.13;40.10;;;;;;;13.62;100.00;99255.28;1766090;79;20941;-66
2021/11/05 19:10:02;;;;;;;68.60;41.40;;;;;;;13.60;100.00;99265.03;1742239;81;20964;-67
2021/11/05 19:12:31;;;;;;;65.10;42.80;;;;;;;13.58;100.00;99268.16;1769807;80;20915;-67
2021/11/05 19:14:59;;;;;;;78.72;46.55;;;;;;;13.54;100.00;99276.62;1753015;81;21144;-63
2021/11/05 19:17:29;;;;;;;70.62;41.30;;;;;;;13.51;100.00;99281.09;1745047;80;21031;-65
2021/11/05 19:19:59;;;;;;;66.60;39.00;;;;;;;13.48;100.00;99280.69;1738843;80;20923;-66
2021/11/05 19:22:26;;;;;;;88.52;51.65;;;;;;;13.48;100.00;99282.02;1752234;80;20878;-66
2021/11/05 19:24:55;;;;;;;70.75;43.02;;;;;;;13.47;100.00;99293.97;1747036;80;20966;-66
2021/11/05 19:27:23;;;;;;;59.60;36.85;;;;;;;13.44;100.00;99300.64;1760804;80;21157;-65
2021/11/05 19:29:51;;;;;;;47.55;31.48;;;;;;;13.43;100.00;99309.48;1756644;80;20873;-66
2021/11/05 19:32:19;;;;;;;47.93;29.77;;;;;;;13.41;100.00;99317.91;1758785;80;20891;-64
2021/11/05 19:34:46;;;;;;;47.25;30.82;;;;;;;13.36;100.00;99311.80;1761289;80;20987;-64
2021/11/05 19:37:14;;;;;;;46.95;30.17;;;;;;;13.33;100.00;99307.87;1761382;80;20983;-64
2021/11/05 19:39:42;;;;;;;44.33;29.48;;;;;;;13.30;100.00;99311.44;1759675;80;21137;-65
2021/11/05 19:42:11;;;;;;;40.43;26.62;;;;;;;13.28;100.00;99322.95;1761313;80;20896;-64